Latest Weather Observations for Low Isles

IDQ60801

Issued at 8:35 pm EST Friday 31 October 2014 (issued every 30 minutes, with the page automatically refreshed every 10 minutes)

About weather observations | Map of weather stations | Latest weather observations for QLD | Other Formats
Station Details ID: 031037 Name: LOW ISLES LIGHTHOUSE Lat: -16.38 Lon: 145.56 Height: 2.9 m
Data from the previous 72 hours. | See also: Recent months at Low Isles
Date/Time
EST
Temp
°C
App
Temp
°C
Dew
Point
Rel
Hum
%
Delta-T
°C
Wind Press
QNH
hPa
Press
MSL
hPa
Rain
since 9 am
mm
Dir
 
Spd
km/h
Gust
km/h
Spd
kts
Gust
kts
31/08:30pm 25.2 26.7 21.3 79 2.6 SE 15 20 8 11 1013.5 - 0.0
31/08:00pm 25.3 26.4 21.2 78 2.7 SE 17 20 9 11 1013.2 - 0.0
31/07:30pm 25.2 26.5 20.9 77 2.8 ESE 15 19 8 10 1012.8 - 0.0
31/07:00pm 25.4 26.7 20.9 76 3.0 ESE 15 19 8 10 1012.5 - 0.0
31/06:30pm 25.6 26.6 20.2 72 3.5 ESE 15 17 8 9 1012.3 - 0.0
31/06:00pm 26.1 26.8 20.4 71 3.7 ESE 17 19 9 10 1012.0 1011.9 0.0
31/05:30pm 26.6 27.2 20.2 68 4.2 ESE 17 20 9 11 1011.8 - 0.0
31/05:00pm 27.2 27.8 20.3 66 4.5 SE 17 20 9 11 1011.6 - 0.0
31/04:30pm 27.7 28.4 20.5 65 4.7 ESE 17 22 9 12 1011.5 - 0.0
31/04:00pm 27.9 28.1 20.2 63 5.0 ESE 19 24 10 13 1011.4 - 0.0
31/03:30pm 28.1 27.8 19.6 60 5.5 ESE 20 24 11 13 1011.4 - 0.0
31/03:00pm 28.5 28.1 20.2 60 5.5 SE 22 - 12 - - 1011.3 0.0
31/02:30pm 29.1 28.9 19.7 57 6.1 ESE 20 26 11 14 1011.9 - 0.0
31/02:00pm 29.1 28.5 18.8 53 6.6 ESE 20 26 11 14 1012.1 - 0.0
31/01:30pm 29.9 30.1 19.3 53 6.9 ESE 17 22 9 12 1012.2 - 0.0
31/01:00pm 30.2 30.5 19.6 53 6.9 ESE 17 20 9 11 1012.5 - 0.0
31/12:30pm 29.7 30.4 19.7 55 6.5 SE 15 19 8 10 1012.9 - 0.0
31/12:00pm 29.6 30.4 19.9 56 6.4 SE 15 20 8 11 1013.3 1013.2 0.0
31/11:30am 29.6 29.7 19.9 56 6.4 SE 19 24 10 13 1013.8 - 0.0
31/11:00am 28.7 29.2 21.2 64 5.0 SSE 20 24 11 13 1014.1 - 0.0
31/10:30am 28.8 30.0 20.0 59 5.8 SE 13 20 7 11 1014.5 - 0.0
31/10:00am 29.4 30.4 20.3 58 6.0 SE 15 19 8 10 1014.6 - 0.0
31/09:30am 28.1 28.8 19.6 60 5.5 SE 15 19 8 10 1014.8 - 0.0
31/09:00am 28.1 29.2 19.6 60 5.5 SE 13 17 7 9 1014.8 1014.7 0.2
31/08:30am 27.7 28.9 19.8 62 5.1 SE 13 17 7 9 1014.7 - 0.2
31/08:00am 27.4 27.5 19.2 61 5.3 ESE 17 20 9 11 1014.5 - 0.2
31/07:30am 26.6 27.2 20.2 68 4.2 ESE 17 22 9 12 1014.2 - 0.2
31/07:00am 25.4 26.0 19.5 70 3.8 ESE 15 20 8 11 1013.8 - 0.2
31/06:30am 24.7 25.1 19.8 74 3.2 E 17 22 9 12 1013.3 - 0.2
31/06:00am 24.5 24.4 20.0 76 2.9 ESE 20 24 11 13 1012.9 1012.8 0.2
31/05:30am 24.3 25.6 20.2 78 2.7 SE 13 15 7 8 1012.5 - 0.2
31/05:00am 24.3 25.6 20.2 78 2.7 ESE 13 15 7 8 1012.4 - 0.2
31/04:30am 24.4 25.4 20.3 78 2.7 ESE 15 17 8 9 1012.1 - 0.2
31/04:00am 24.5 25.8 20.2 77 2.8 ESE 13 17 7 9 1012.0 - 0.2
31/03:30am 24.2 25.0 19.9 77 2.8 ESE 15 17 8 9 1012.1 - 0.2
31/03:00am 24.0 25.1 19.7 77 2.8 ESE 13 17 7 9 1012.0 1011.9 0.2
31/02:30am 24.2 25.0 19.9 77 2.8 ESE 15 19 8 10 1012.0 - 0.2
31/02:00am 24.3 24.9 20.2 78 2.7 ESE 17 20 9 11 1012.2 - 0.2
31/01:30am 24.5 25.0 20.0 76 2.9 ESE 17 20 9 11 1012.7 - 0.2
31/01:00am 24.6 24.9 20.3 77 2.8 ESE 19 24 10 13 1013.0 - 0.2
31/12:30am 24.7 24.7 20.2 76 2.9 ESE 20 24 11 13 1013.3 - 0.2
31/12:00am 24.7 24.9 20.6 78 2.7 ESE 20 24 11 13 1013.5 1013.4 0.2
 
Date/Time
EST
Temp
°C
App
Temp
°C
Dew
Point
Rel
Hum
%
Delta-T
°C
Wind Press
QNH
hPa
Press
MSL
hPa
Rain
since 9 am
mm
Dir
 
Spd
km/h
Gust
km/h
Spd
kts
Gust
kts
30/11:30pm 24.7 25.0 20.4 77 2.8 ESE 19 24 10 13 1013.7 - 0.2
30/11:00pm 24.8 25.1 20.5 77 2.8 ESE 19 24 10 13 1014.0 - 0.2
30/10:30pm 24.8 25.9 20.5 77 2.8 ESE 15 20 8 11 1014.0 - 0.2
30/10:00pm 24.8 25.1 20.5 77 2.8 ESE 19 24 10 13 1013.9 - 0.2
30/09:30pm 25.0 25.9 20.9 78 2.7 ESE 17 20 9 11 1013.7 - 0.2
30/09:00pm 25.0 25.4 20.7 77 2.8 ESE 19 24 10 13 1013.4 1013.3 0.2
30/08:30pm 25.0 25.6 20.3 75 3.1 ESE 17 20 9 11 1013.2 - 0.2
30/08:00pm 25.1 26.3 20.6 76 2.9 ESE 15 19 8 10 1012.8 - 0.2
30/07:30pm 25.2 26.4 20.7 76 2.9 SE 15 20 8 11 1012.6 - 0.2
30/07:00pm 25.1 26.2 20.4 75 3.1 ESE 15 19 8 10 1012.2 - 0.2
30/06:30pm 25.4 26.3 20.0 72 3.5 ESE 15 17 8 9 1011.8 - 0.2
30/06:00pm 26.0 27.1 19.6 68 4.1 ESE 13 17 7 9 1011.5 1011.4 0.2
30/05:30pm 26.6 27.7 19.7 66 4.5 SE 13 17 7 9 1011.3 - 0.2
30/05:00pm 27.2 28.6 19.5 62 5.0 SE 11 15 6 8 1011.2 - 0.2
30/04:30pm 27.6 28.7 19.7 62 5.1 SE 13 17 7 9 1011.3 - 0.2
30/04:00pm 28.2 29.2 20.2 62 5.2 E 15 20 8 11 1011.3 - 0.2
30/03:30pm 28.3 28.6 19.5 59 5.7 ESE 17 22 9 12 1011.6 - 0.2
30/03:00pm 28.6 28.6 19.0 56 6.2 ESE 17 22 9 12 1011.7 1011.6 0.2
30/02:30pm 28.7 28.4 19.1 56 6.2 ESE 19 26 10 14 1012.0 - 0.2
30/02:00pm 29.3 28.8 19.0 53 6.7 ESE 20 24 11 13 1012.2 - 0.2
30/01:30pm 29.2 29.7 20.1 58 6.0 SE 17 24 9 13 1012.6 - 0.2
30/01:00pm 29.2 29.1 19.5 56 6.3 SE 19 24 10 13 1013.0 - 0.2
30/12:30pm 29.3 29.5 20.2 58 6.0 SE 19 24 10 13 1013.7 - 0.0
30/12:00pm 29.7 29.9 20.5 57 6.1 SE 20 24 11 13 1014.1 1014.0 0.0
30/11:30am 29.5 29.6 20.4 58 6.0 ESE 20 26 11 14 1014.4 - 0.0
30/11:00am 28.2 28.8 21.0 65 4.8 SSE 19 20 10 11 1014.7 - 0.0
30/10:30am 27.9 28.1 20.5 64 4.9 SSE 20 24 11 13 1015.1 - 0.0
30/10:00am 27.3 27.7 20.9 68 4.2 SE 20 24 11 13 1015.4 - 0.0
30/09:30am 27.9 28.3 21.0 66 4.6 SE 20 22 11 12 1015.4 - 0.0
30/09:00am 26.8 27.9 20.4 68 4.2 SE 15 19 8 10 1015.0 1014.9 0.0
30/08:30am 26.8 28.2 20.4 68 4.2 SE 13 17 7 9 1014.7 - 0.0
30/08:00am 26.5 28.5 21.5 74 3.3 SE 13 17 7 9 1014.4 - 0.0
30/07:30am 24.4 26.3 20.5 79 2.5 W 11 13 6 7 1013.9 - 0.0
30/07:00am 24.2 25.0 20.7 81 2.3 W 17 19 9 10 1013.6 - 0.0
30/06:30am 23.5 23.6 20.0 81 2.3 W 19 20 10 11 1013.3 - 0.0
30/06:00am 23.5 25.0 20.6 84 1.9 SW 13 15 7 8 1013.1 1013.0 0.0
30/05:30am 23.3 24.7 20.4 84 1.9 WSW 13 15 7 8 1012.8 - 0.0
30/05:00am 23.2 23.8 20.3 84 1.9 W 17 20 9 11 1012.4 - 0.0
30/04:30am 23.2 23.8 20.2 83 1.9 W 17 20 9 11 1012.1 - 0.0
30/04:00am 23.5 24.6 20.4 83 2.0 WSW 15 17 8 9 1011.9 - 0.0
30/03:30am 23.7 24.9 20.6 83 2.0 WSW 15 17 8 9 1011.9 - 0.0
30/03:00am 23.8 25.0 20.7 83 2.0 WSW 15 17 8 9 1012.0 1011.9 0.0
30/02:30am 23.9 25.1 20.6 82 2.2 WSW 15 17 8 9 1012.3 - 0.0
30/02:00am 23.9 24.9 20.2 80 2.4 WSW 15 17 8 9 1012.5 - 0.0
30/01:30am 24.0 25.6 20.7 82 2.2 WSW 13 17 7 9 1012.9 - 0.0
30/01:00am 24.0 25.4 20.3 80 2.4 WSW 13 15 7 8 1013.2 - 0.0
30/12:30am 24.1 25.6 20.6 81 2.3 WSW 13 15 7 8 1013.4 - 0.0
30/12:00am 24.2 26.1 20.5 80 2.4 W 11 13 6 7 1013.4 1013.3 0.0
 
Date/Time
EST
Temp
°C
App
Temp
°C
Dew
Point
Rel
Hum
%
Delta-T
°C
Wind Press
QNH
hPa
Press
MSL
hPa
Rain
since 9 am
mm
Dir
 
Spd
km/h
Gust
km/h
Spd
kts
Gust
kts
29/11:30pm 24.2 26.8 20.1 78 2.7 NE 6 9 3 5 1013.8 - 0.0
29/11:00pm 24.3 26.8 20.2 78 2.7 ESE 7 9 4 5 1014.0 - 0.0
29/10:30pm 23.9 26.2 19.8 78 2.6 ENE 7 11 4 6 1014.0 - 0.0
29/10:00pm 23.5 25.8 19.8 80 2.4 E 7 11 4 6 1013.9 - 0.0
29/09:30pm 23.5 25.8 19.8 80 2.4 ESE 7 9 4 5 1013.6 - 0.0
29/09:00pm 23.7 26.2 19.8 79 2.5 ESE 6 7 3 4 1013.4 1013.3 0.0
29/08:30pm 23.6 25.8 19.5 78 2.6 E 7 11 4 6 1013.4 - 0.0
29/08:00pm 23.9 25.8 19.8 78 2.6 ESE 9 11 5 6 1013.2 - 0.0
29/07:30pm 24.1 25.9 19.6 76 2.9 E 9 13 5 7 1013.1 - 0.0
29/07:00pm 24.7 26.5 19.5 73 3.3 E 9 11 5 6 1012.9 - 0.0
29/06:30pm 25.3 27.3 19.2 69 3.9 E 7 9 4 5 1012.9 - 0.0
29/06:00pm 26.2 27.9 19.3 65 4.4 ENE 9 11 5 6 1012.6 1012.5 0.0
29/05:30pm 26.5 27.8 19.4 65 4.6 E 11 13 6 7 1012.6 - 0.0
29/05:00pm 26.9 27.9 19.5 64 4.8 E 13 19 7 10 1012.2 - 0.0
29/04:30pm 28.2 28.8 19.4 59 5.7 E 15 20 8 11 1012.0 - 0.0
29/04:00pm 28.0 28.6 18.7 57 6.0 E 13 19 7 10 1012.0 - 0.0
29/03:30pm 28.6 28.5 18.7 55 6.4 E 17 22 9 12 1011.9 - 0.0
29/03:00pm 28.7 29.4 18.8 55 6.4 E 13 - 7 - - 1012.0 0.0
29/02:30pm 29.5 30.6 18.9 53 6.9 E 11 15 6 8 1012.4 - 0.0
29/02:00pm 29.7 30.9 19.1 53 6.9 ENE 11 15 6 8 1012.7 - 0.0
29/01:30pm 29.3 30.6 19.3 55 6.5 ENE 11 13 6 7 1013.0 - 0.0
29/01:00pm 30.2 32.2 19.9 54 6.8 ENE 9 15 5 8 1013.6 - 0.0
29/12:30pm 28.8 29.8 19.4 56 6.1 SE 13 17 7 9 1014.0 - 0.0
29/12:00pm 28.4 29.1 19.6 59 5.7 SSE 15 19 8 10 1014.4 1014.3 0.0
29/11:30am 28.1 29.3 19.9 61 5.4 SSE 13 17 7 9 1014.5 - 0.0
29/11:00am 27.8 29.5 20.1 63 5.0 SSE 11 15 6 8 1014.8 - 0.0
29/10:30am 26.9 29.1 20.3 67 4.3 SSW 9 13 5 7 1014.9 - 0.0
29/10:00am 25.6 27.6 19.9 70 3.7 WSW 9 11 5 6 1014.8 - 0.0
29/09:30am 24.9 27.0 19.3 71 3.6 WSW 7 9 4 5 1014.9 - 0.0
29/09:00am 25.4 27.3 19.8 71 3.6 W 9 11 5 6 1014.8 1014.7 0.0
29/08:30am 24.3 25.7 19.6 75 3.0 WSW 11 13 6 7 1014.7 - 0.0
29/08:00am 23.9 25.0 19.6 77 2.8 WSW 13 15 7 8 1014.5 - 0.0
29/07:30am 23.5 24.1 19.4 78 2.6 W 15 17 8 9 1014.2 - 0.0
29/07:00am 23.5 24.3 19.8 80 2.4 W 15 17 8 9 1013.8 - 0.0
29/06:30am 23.1 23.4 19.5 80 2.3 W 17 20 9 11 1013.5 - 0.0
29/06:00am 23.1 23.6 20.1 83 1.9 W 17 19 9 10 1013.1 1013.0 0.0
29/05:30am 23.1 24.9 20.4 85 1.7 WSW 11 17 6 9 1012.9 - 0.0
29/05:00am 21.9 22.8 18.5 81 2.1 ESE 11 13 6 7 1012.5 - 0.0
29/04:30am 21.9 23.1 18.3 80 2.2 ESE 9 13 5 7 1012.2 - 0.0
29/04:00am 22.3 23.2 18.3 78 2.5 ESE 11 13 6 7 1011.9 - 0.0
29/03:30am 22.8 24.0 19.0 79 2.4 ESE 11 15 6 8 1011.8 - 0.0
29/03:00am 22.4 23.9 19.0 81 2.2 SE 9 13 5 7 1011.7 1011.6 0.0
29/02:30am 22.6 24.1 18.8 79 2.4 SE 9 11 5 6 1011.8 - 0.0
29/02:00am 22.8 23.8 18.6 77 2.6 SE 11 13 6 7 1012.2 - 0.0
29/01:30am 22.7 24.2 18.9 79 2.4 ESE 9 13 5 7 1012.4 - 0.0
29/01:00am 22.9 24.0 18.9 78 2.5 SE 11 13 6 7 1012.7 - 0.0
29/12:30am 23.6 25.3 19.3 77 2.7 SSE 9 11 5 6 1012.8 - 0.0
29/12:00am 23.1 24.8 19.3 79 2.4 SE 9 13 5 7 1013.3 1013.2 0.0
 
Date/Time
EST
Temp
°C
App
Temp
°C
Dew
Point
Rel
Hum
%
Delta-T
°C
Wind Press
QNH
hPa
Press
MSL
hPa
Rain
since 9 am
mm
Dir
 
Spd
km/h
Gust
km/h
Spd
kts
Gust
kts
28/11:30pm 22.8 24.7 19.0 79 2.4 ESE 7 9 4 5 1013.9 - 0.0
28/11:00pm 23.1 24.7 19.1 78 2.5 ESE 9 11 5 6 1014.2 - 0.0
28/10:30pm 23.5 25.1 19.2 77 2.7 ESE 9 11 5 6 1014.5 - 0.0
28/10:00pm 23.2 24.9 19.4 79 2.4 SE 9 13 5 7 1014.4 - 0.0
28/09:30pm 23.3 24.8 19.0 77 2.7 ESE 9 13 5 7 1014.3 - 0.0
28/09:00pm 23.6 24.8 19.1 76 2.9 SE 11 13 6 7 1014.2 1014.1 0.0

Other Formats:

Comma delimited format used in spreadsheet applications
http://www.bom.gov.au/fwo/IDQ60801/IDQ60801.94285.axf

JavaScript Object Notation format (JSON) in row-major order
http://www.bom.gov.au/fwo/IDQ60801/IDQ60801.94285.json